Архив погоды в Боковской

Метеограмма Боковская
Воскресенье, 30 Апреля
Время местн. Темп Ветер Видим Явления Облачность нижн/средн/верх Атм. давл. Влжн Точка росы ВНГО R Сост. почвы Tg s
Напр Скр Прв ур.ст ур.м изм
03:00 +8.1° В,Ю-В 2 - 20 км - ясно 758 767 +0.5 65% +2° более 2.5 км - - - -
00:00 +10.8° В,Ю-В 2 - 20 км - ясно 758 766 +0.6 65% +4.5° более 2.5 км - - - -
Суббота, 29 Апреля
Время местн. Темп Ветер Видим Явления Облачность нижн/средн/верх Атм. давл. Влжн Точка росы ВНГО R Сост. почвы Tg s
Напр Скр Прв ур.ст ур.м изм
21:00 +13.3° В,Ю-В 1 - 20 км - ясно 757 766 +0.9 65% +6.8° более 2.5 км - - - -
18:00 +22.1° Ю-В 4 - 20 км - ясно 757 765 -0.5 33% +5.1° более 2.5 км - - - -
15:00 +23.2° В,Ю-В 3 - 20 км - ясно 757 765 -0.7 33% +6.2° более 2.5 км - - - -
12:00 +20.2° В,Ю-В 4 - 20 км - ясно 758 766 -0.4 39% +5.7° более 2.5 км - - - -
09:00 +14.5° Ю-В 4 - 20 км - ясно 758 766 -0.2 51% +4.4° более 2.5 км - - - -
06:00 +7.3° В,Ю-В 1 - 20 км - ясно 758 767 +0.1 67% +1.6° более 2.5 км - Сухая (без трещин) - -
03:00 +8.2° В,Ю-В 3 - 20 км - ясно 758 767 -0.8 57% +0.2° более 2.5 км - - - -
00:00 +10.7° Ю-В 2 - 20 км - ясно 759 767 +0.2 52% +1.3° более 2.5 км - - - -
Пятница, 28 Апреля
Время местн. Темп Ветер Видим Явления Облачность нижн/средн/верх Атм. давл. Влжн Точка росы ВНГО R Сост. почвы Tg s
Напр Скр Прв ур.ст ур.м изм
21:00 +15.5° В,Ю-В 3 11 20 км - ясно 759 767 +0.6 40% +2.1° более 2.5 км - - - -
18:00 +21.5° В,Ю-В 5 - 20 км - ясно 758 766 -0.9 28% +2.3° более 2.5 км - - - -
15:00 +23° Ю-В 7 16 20 км - ясно 759 767 -1.1 28% +3.7° более 2.5 км - - - -
12:00 +21.3° Ю-В 4 - 20 км - ясно 760 768 -1.6 35% +5.2° более 2.5 км - - - -
09:00 +15.1° Ю-В 4 - 20 км - ясно 762 770 -0.5 45% +3.3° более 2.5 км - - - -
06:00 +6° Ю-В 3 - 20 км - ясно 762 771 +0.3 72% +1.4° более 2.5 км - Сухая (без трещин) - -
03:00 +5.7° Ю-В 2 - 20 км - ясно 762 771 -0.6 73% +1.3° более 2.5 км - - - -
00:00 +7° Ю-В 1 - 20 км - ясно 763 771 +0.6 67% +1.3° более 2.5 км - - - -
Четверг, 27 Апреля
Время местн. Темп Ветер Видим Явления Облачность нижн/средн/верх Атм. давл. Влжн Точка росы ВНГО R Сост. почвы Tg s
Напр Скр Прв ур.ст ур.м изм
21:00 +11.4° Ю-В 2 10 20 км - переменная облачность 762 770 +0.2 51% +1.5° более 2.5 км - - - -
18:00 +18.7° Ю-В 5 - 20 км - переменная облачность 762 770 -0.9 27% -0.8° - - - - -
15:00 +20.1° Ю-В 5 12 20 км - переменная облачность 763 771 -0.9 24% -1.2° более 2.5 км - - - -
12:00 +17.4° Ю 6 11 20 км - ясно 764 772 -0.6 22% -4.8° более 2.5 км - - - -
09:00 +13.7° Ю-В 6 10 20 км - ясно 764 773 +0.1 33% -2.4° более 2.5 км - - - -
06:00 +5.3° Ю-В 2 - 20 км - ясно 764 773 +0.3 72% +0.6° более 2.5 км - Влажная (без луж) - -
03:00 - +2.3° В 1 - - - - 764 773 -0.1 85% +0.1° - - - - -
00:00 +6.5° Ю-В 2 - 20 км - ясно 764 772 +0.5 69% +1.2° более 2.5 км - - - -